Terminal Aerodrome Forecast
Issued by NWS Charleston, WV

Current Version | Previous Version | Text Only | Print | Product List | Glossary Off
Versions: 1 2 3 4 5 6 7 8 9 10 11 12 13 14 15 16 17 18 19 20 21 22 23

000
FTUS41 KRLX 292300
TAFHTS
TAF
KHTS 292329Z 3000/3024 00000KT P6SM SCT045
     FM300200 00000KT P6SM BKN045
     FM300400 00000KT P6SM SCT045
     FM300500 00000KT 5SM BR SCT045
     FM300800 00000KT 3SM BR SCT250
     FM301100 00000KT 1 1/2SM BR SCT250
     FM301300 26004KT P6SM SCT045=

USA.gov is the U.S. government's official web portal to all federal, state and local government web resources and services.